createdAt,value
2023-09-25T00:10:22.554Z,101144.88
2023-09-25T00:20:26.340Z,101148.38
2023-09-25T00:30:29.823Z,101150.14
2023-09-25T00:40:34.467Z,101150.11
2023-09-25T00:50:39.050Z,101157.14
2023-09-25T01:00:44.907Z,101158.88
2023-09-25T01:10:50.466Z,101160.59
2023-09-25T01:20:55.556Z,101165.86
2023-09-25T01:31:00.233Z,101178.19
2023-09-25T01:41:04.496Z,101177.25
2023-09-25T01:51:11.610Z,101186.88
2023-09-25T02:01:16.486Z,101185.05
2023-09-25T02:11:19.961Z,101188.44
2023-09-25T02:21:23.609Z,101200.72
2023-09-25T02:31:27.398Z,101216.55
2023-09-25T02:41:30.934Z,101212.95
2023-09-25T02:51:34.767Z,101215.66
2023-09-25T03:10:18.450Z,101231.41
2023-09-25T03:20:23.056Z,101236.47
2023-09-25T03:30:27.117Z,101261.10
2023-09-25T03:40:31.610Z,101256.69
2023-09-25T03:50:36.040Z,101256.69
2023-09-25T04:00:41.133Z,101261.98
2023-09-25T04:10:44.779Z,101273.43
2023-09-25T04:20:50.072Z,101270.06
2023-09-25T04:30:54.279Z,101266.67
2023-09-25T04:40:58.345Z,101271.32
2023-09-25T04:51:01.823Z,101272.37
2023-09-25T05:10:52.066Z,101283.25
2023-09-25T05:20:56.029Z,101294.80
2023-09-25T05:31:00.505Z,101294.92
2023-09-25T05:41:04.472Z,101298.43
2023-09-25T05:51:08.905Z,101304.52
2023-09-25T06:01:12.481Z,101310.47
2023-09-25T06:11:16.083Z,101303.91
2023-09-25T06:21:20.291Z,101304.25
2023-09-25T06:31:26.529Z,101315.21
2023-09-25T06:41:30.913Z,101312.72
2023-09-25T06:51:35.496Z,101310.83
2023-09-25T07:01:39.214Z,101321.06
2023-09-25T07:11:42.996Z,101319.38
2023-09-25T07:21:47.105Z,101313.36
2023-09-25T07:31:51.975Z,101310.58
2023-09-25T07:41:56.960Z,101319.41
2023-09-25T07:52:01.870Z,101319.21
2023-09-25T08:02:05.960Z,101319.21
2023-09-25T08:12:10.641Z,101317.65
2023-09-25T08:22:15.068Z,101308.34
2023-09-25T08:32:18.524Z,101300.86
2023-09-25T08:42:25.300Z,101301.55
2023-09-25T08:52:29.113Z,101300.02
2023-09-25T09:10:18.086Z,101295.80
2023-09-25T09:20:24.501Z,101301.08
2023-09-25T09:30:29.026Z,101298.41
2023-09-25T09:40:33.060Z,101291.45
2023-09-25T09:50:39.150Z,101291.59
2023-09-25T10:00:43.648Z,101289.91
2023-09-25T10:10:52.728Z,101285.64
2023-09-25T10:21:04.797Z,101277.19
2023-09-25T10:31:26.469Z,101273.38
2023-09-25T10:41:31.597Z,101268.05
2023-09-25T10:51:36.335Z,101259.30
2023-09-25T11:01:39.793Z,101253.89
2023-09-25T11:11:45.645Z,101242.65
2023-09-25T11:21:51.350Z,101236.94
2023-09-25T11:32:02.568Z,101223.64
2023-09-25T11:42:01.351Z,101222.38
2023-09-25T11:52:04.928Z,101217.44
2023-09-25T12:10:21.539Z,101217.84
2023-09-25T12:20:26.606Z,101210.53
2023-09-25T12:30:30.732Z,101209.96
2023-09-25T12:40:34.539Z,101209.75
2023-09-25T12:50:38.088Z,101207.03
2023-09-25T13:00:41.768Z,101214.20
2023-09-25T13:10:46.118Z,101213.28
2023-09-25T13:20:49.572Z,101220.34
2023-09-25T13:30:53.163Z,101219.03
2023-09-25T13:40:56.882Z,101221.26
2023-09-25T13:51:00.758Z,101224.15
2023-09-25T14:01:06.370Z,101230.05
2023-09-25T14:24:37.717Z,101235.34
2023-09-25T14:34:41.164Z,101248.03
2023-09-25T14:44:44.605Z,101241.36
2023-09-25T14:54:49.782Z,101244.63
2023-09-25T15:10:18.883Z,101242.30
2023-09-25T15:20:22.428Z,101246.63
2023-09-25T15:30:25.967Z,101257.89
2023-09-25T15:40:29.444Z,101271.06
2023-09-25T15:50:34.745Z,101282.04
2023-09-25T16:00:39.930Z,101273.56
2023-09-25T16:10:43.689Z,101281.59
2023-09-25T16:20:47.279Z,101295.05
2023-09-25T16:30:50.792Z,101295.05
2023-09-25T16:40:54.447Z,101296.48
2023-09-25T16:50:58.744Z,101292.88
2023-09-25T17:01:03.944Z,101298.04
2023-09-25T17:11:07.567Z,101309.47
2023-09-25T17:21:11.017Z,101319.80
2023-09-25T17:31:14.626Z,101319.45
2023-09-25T17:41:18.233Z,101328.72
2023-09-25T17:51:22.190Z,101332.54
2023-09-25T18:10:39.230Z,101339.03
2023-09-25T18:20:43.385Z,101346.58
2023-09-25T18:30:48.100Z,101345.08
2023-09-25T18:40:51.618Z,101340.83
2023-09-25T18:50:55.170Z,101346.39
2023-09-25T19:00:58.979Z,101347.50
2023-09-25T19:11:04.428Z,101355.69
2023-09-25T19:21:07.944Z,101351.45
2023-09-25T19:31:27.420Z,101348.87
2023-09-25T19:41:16.620Z,101346.36
2023-09-25T19:51:20.096Z,101353.54
2023-09-25T20:01:23.550Z,101366.90
2023-09-25T20:11:27.287Z,101381.08
2023-09-25T20:21:31.866Z,101370.55
2023-09-25T20:31:35.394Z,101366.02
2023-09-25T20:41:39.153Z,101371.27
2023-09-25T20:51:43.186Z,101364.17
2023-09-25T21:10:32.520Z,101362.39
2023-09-25T21:20:37.563Z,101379.39
2023-09-25T21:30:41.643Z,101374.14
2023-09-25T21:40:45.231Z,101369.81
2023-09-25T21:51:00.757Z,101369.82
2023-09-25T22:01:05.336Z,101374.29
2023-09-25T22:11:09.717Z,101376.09
2023-09-25T22:21:16.139Z,101375.24
2023-09-25T22:31:21.240Z,101378.77
2023-09-25T22:41:26.603Z,101383.20
2023-09-25T22:51:31.055Z,101401.72
2023-09-25T23:01:34.738Z,101388.48
2023-09-25T23:11:38.497Z,101389.37
2023-09-25T23:21:41.925Z,101385.83
2023-09-25T23:31:45.358Z,101384.05
2023-09-25T23:41:48.896Z,101377.00
2023-09-25T23:51:52.839Z,101370.82
